^^
Your Local Weather - Clay, NY Station Historical Data
Daily Summary for October 12, 2017 Units:  English    Metric   Both
« Previous Day
Next Day »
Daily Weekly Monthly Yearly Custom
  High: Low: Average:
Temperature: 61.3 °F 47.0 °F 51.9 °F
Dew Point: 51.4 °F 44.4 °F 47.1 °F
Humidity: 92% 67% 84%
Wind Speed: 5.0mph 0.0mph 2.1mph
Wind Gust: 10.0mph - -
Wind- - East
Pressure: 30.35 in 30.22 in -
Precipitation: 0.07 in    
Historical Graphs
 
 
Tabular Data for October 12, 2017
Time Temperature Dew Point Pressure Wind Wind Speed Wind Gust Humidity Rainfall Rate (Hourly) solar
00:00 49.1 °F 45.7 °F 30.23 in ESE 4.0 mph 4.0 mph 88% 0.07 in 0 W/m2
00:02 49.0 °F 45.6 °F 30.23 in NE 3.0 mph 4.0 mph 88% 0.07 in 0 W/m2
00:08 48.7 °F 45.3 °F 30.23 in ENE 2.0 mph 5.0 mph 88% 0.10 in 0 W/m2
00:14 48.4 °F 45.0 °F 30.23 in East 3.0 mph 3.0 mph 88% 0.09 in 0 W/m2
00:20 48.3 °F 45.2 °F 30.23 in ESE 3.0 mph 3.0 mph 89% 0.06 in 0 W/m2
00:26 48.1 °F 45.0 °F 30.22 in ENE 3.0 mph 4.0 mph 89% 0.04 in 0 W/m2
00:32 47.9 °F 44.8 °F 30.22 in ENE 3.0 mph 4.0 mph 89% 0.00 in 0 W/m2
00:38 47.8 °F 45.0 °F 30.22 in ENE 2.0 mph 4.0 mph 90% 0.00 in 0 W/m2
00:44 47.7 °F 44.9 °F 30.23 in ENE 2.0 mph 3.0 mph 90% 0.07 in 0 W/m2
00:50 47.6 °F 44.8 °F 30.24 in ENE 1.0 mph 3.0 mph 90% 0.06 in 0 W/m2
00:56 47.6 °F 44.8 °F 30.24 in SE 2.0 mph 3.0 mph 90% 0.04 in 0 W/m2
01:02 47.6 °F 45.1 °F 30.24 in SE 2.0 mph 2.0 mph 91% 0.00 in 0 W/m2
01:08 47.6 °F 45.1 °F 30.24 in East 2.0 mph 2.0 mph 91% 0.00 in 0 W/m2
01:14 47.5 °F 45.0 °F 30.24 in ESE 1.0 mph 3.0 mph 91% 0.00 in 0 W/m2
01:20 47.5 °F 45.0 °F 30.24 in ENE 2.0 mph 2.0 mph 91% 0.00 in 0 W/m2
01:26 47.6 °F 45.4 °F 30.24 in SE 2.0 mph 6.0 mph 92% 0.00 in 0 W/m2
01:32 47.5 °F 45.3 °F 30.25 in East 1.0 mph 2.0 mph 92% 0.00 in 0 W/m2
01:38 47.5 °F 45.3 °F 30.25 in SE 2.0 mph 3.0 mph 92% 0.00 in 0 W/m2
01:44 47.6 °F 45.4 °F 30.25 in NE 2.0 mph 3.0 mph 92% 0.00 in 0 W/m2
01:50 47.5 °F 45.3 °F 30.25 in SSE 2.0 mph 2.0 mph 92% 0.00 in 0 W/m2
01:56 47.5 °F 45.3 °F 30.25 in ENE 2.0 mph 6.0 mph 92% 0.00 in 0 W/m2
02:02 47.5 °F 45.3 °F 30.25 in ENE 3.0 mph 3.0 mph 92% 0.00 in 0 W/m2
02:08 47.4 °F 45.2 °F 30.25 in ENE 3.0 mph 4.0 mph 92% 0.00 in 0 W/m2
02:14 47.4 °F 45.2 °F 30.25 in ENE 2.0 mph 4.0 mph 92% 0.00 in 0 W/m2
02:20 47.4 °F 44.9 °F 30.25 in ENE 2.0 mph 4.0 mph 91% 0.00 in 0 W/m2
02:26 47.4 °F 44.9 °F 30.25 in ENE 3.0 mph 4.0 mph 91% 0.00 in 0 W/m2
02:32 47.3 °F 44.8 °F 30.25 in South 3.0 mph 4.0 mph 91% 0.00 in 0 W/m2
02:38 47.3 °F 44.5 °F 30.25 in SE 3.0 mph 5.0 mph 90% 0.00 in 0 W/m2
02:44 47.3 °F 44.5 °F 30.25 in ESE 4.0 mph 4.0 mph 90% 0.00 in 0 W/m2
02:56 47.2 °F 44.4 °F 30.25 in ESE 2.0 mph 3.0 mph 90% 0.00 in 0 W/m2
03:02 47.2 °F 44.4 °F 30.25 in East 3.0 mph 3.0 mph 90% 0.00 in 0 W/m2
03:08 47.2 °F 44.4 °F 30.25 in ENE 3.0 mph 3.0 mph 90% 0.00 in 0 W/m2
03:14 47.2 °F 44.4 °F 30.25 in East 3.0 mph 6.0 mph 90% 0.00 in 0 W/m2
03:20 47.2 °F 44.4 °F 30.25 in ESE 3.0 mph 3.0 mph 90% 0.00 in 0 W/m2
03:32 47.2 °F 44.4 °F 30.25 in SE 2.0 mph 4.0 mph 90% 0.00 in 0 W/m2
03:38 47.2 °F 44.7 °F 30.25 in ENE 2.0 mph 4.0 mph 91% 0.00 in 0 W/m2
03:44 47.2 °F 44.7 °F 30.25 in ENE 2.0 mph 3.0 mph 91% 0.00 in 0 W/m2
03:50 47.2 °F 44.7 °F 30.25 in NNE 2.0 mph 2.0 mph 91% 0.00 in 0 W/m2
03:56 47.2 °F 44.7 °F 30.26 in ENE 2.0 mph 4.0 mph 91% 0.00 in 0 W/m2
04:02 47.1 °F 44.6 °F 30.26 in ENE 2.0 mph 4.0 mph 91% 0.00 in 0 W/m2
04:08 47.1 °F 44.6 °F 30.26 in ENE 2.0 mph 4.0 mph 91% 0.00 in 0 W/m2
04:14 47.0 °F 44.5 °F 30.26 in ENE 2.0 mph 3.0 mph 91% 0.00 in 0 W/m2
04:20 47.0 °F 44.8 °F 30.26 in East 2.0 mph 3.0 mph 92% 0.00 in 0 W/m2
04:26 47.0 °F 44.8 °F 30.26 in ENE 1.0 mph 4.0 mph 92% 0.00 in 0 W/m2
04:32 47.0 °F 44.8 °F 30.26 in NNE 2.0 mph 4.0 mph 92% 0.00 in 0 W/m2
04:38 47.0 °F 44.8 °F 30.26 in East 2.0 mph 4.0 mph 92% 0.00 in 0 W/m2
04:44 47.0 °F 44.8 °F 30.26 in ENE 2.0 mph 3.0 mph 92% 0.00 in 0 W/m2
04:50 47.0 °F 44.8 °F 30.27 in NE 1.0 mph 4.0 mph 92% 0.00 in 0 W/m2
04:56 47.1 °F 44.9 °F 30.26 in ENE 2.0 mph 4.0 mph 92% 0.00 in 0 W/m2
05:02 47.3 °F 45.1 °F 30.26 in North 2.0 mph 2.0 mph 92% 0.00 in 0 W/m2
05:08 47.3 °F 45.1 °F 30.27 in ENE 1.0 mph 3.0 mph 92% 0.00 in 0 W/m2
05:20 47.5 °F 45.3 °F 30.26 in NE 1.0 mph 2.0 mph 92% 0.00 in 0 W/m2
05:26 47.6 °F 45.4 °F 30.26 in SE 1.0 mph 2.0 mph 92% 0.00 in 0 W/m2
05:32 47.7 °F 45.5 °F 30.26 in ESE 1.0 mph 2.0 mph 92% 0.00 in 0 W/m2
05:38 47.9 °F 45.7 °F 30.26 in ENE 1.0 mph 3.0 mph 92% 0.00 in 0 W/m2
05:44 47.9 °F 45.7 °F 30.26 in NNE 1.0 mph 5.0 mph 92% 0.00 in 0 W/m2
05:50 48.1 °F 45.9 °F 30.27 in East 2.0 mph 2.0 mph 92% 0.00 in 0 W/m2
05:56 48.2 °F 46.0 °F 30.27 in ENE 2.0 mph 2.0 mph 92% 0.00 in 0 W/m2
06:02 48.4 °F 46.2 °F 30.27 in ESE 2.0 mph 5.0 mph 92% 0.00 in 0 W/m2
06:08 48.5 °F 46.3 °F 30.27 in East 3.0 mph 6.0 mph 92% 0.00 in 0 W/m2
06:14 48.6 °F 46.4 °F 30.27 in South 3.0 mph 3.0 mph 92% 0.00 in 0 W/m2
06:20 48.7 °F 46.5 °F 30.28 in ESE 3.0 mph 3.0 mph 92% 0.00 in 0 W/m2
06:26 48.8 °F 46.6 °F 30.28 in ENE 3.0 mph 3.0 mph 92% 0.00 in 0 W/m2
06:32 48.9 °F 46.7 °F 30.28 in ENE 3.0 mph 7.0 mph 92% 0.00 in 0 W/m2
06:38 48.9 °F 46.7 °F 30.28 in ESE 3.0 mph 7.0 mph 92% 0.00 in 0 W/m2
06:44 48.8 °F 46.6 °F 30.28 in SE 3.0 mph 4.0 mph 92% 0.00 in 0 W/m2
06:50 48.8 °F 46.3 °F 30.28 in ENE 3.0 mph 7.0 mph 91% 0.00 in 0 W/m2
06:56 48.7 °F 46.2 °F 30.28 in East 3.0 mph 7.0 mph 91% 0.00 in 0 W/m2
07:02 48.7 °F 46.2 °F 30.28 in NE 4.0 mph 4.0 mph 91% 0.00 in 0 W/m2
07:08 48.7 °F 46.2 °F 30.29 in SSE 3.0 mph 4.0 mph 91% 0.00 in 0 W/m2
07:14 48.7 °F 46.2 °F 30.29 in NE 3.0 mph 4.0 mph 91% 0.00 in 0 W/m2
07:20 48.7 °F 46.2 °F 30.29 in SSE 2.0 mph 3.0 mph 91% 0.00 in 0 W/m2
07:26 48.7 °F 45.9 °F 30.29 in ENE 2.0 mph 3.0 mph 90% 0.00 in 5 W/m2
07:32 48.7 °F 45.9 °F 30.30 in SE 2.0 mph 3.0 mph 90% 0.00 in 7 W/m2
07:38 48.5 °F 45.4 °F 30.30 in ENE 3.0 mph 7.0 mph 89% 0.00 in 11 W/m2
07:44 48.5 °F 45.4 °F 30.30 in ENE 3.0 mph 5.0 mph 89% 0.00 in 16 W/m2
07:50 48.5 °F 45.4 °F 30.30 in ESE 2.0 mph 5.0 mph 89% 0.00 in 19 W/m2
07:56 48.5 °F 45.4 °F 30.30 in ENE 3.0 mph 5.0 mph 89% 0.00 in 19 W/m2
08:02 48.5 °F 45.1 °F 30.30 in East 4.0 mph 10.0 mph 88% 0.00 in 21 W/m2
08:08 48.5 °F 45.1 °F 30.31 in SE 3.0 mph 10.0 mph 88% 0.00 in 26 W/m2
08:14 48.5 °F 45.1 °F 30.31 in NE 3.0 mph 5.0 mph 88% 0.00 in 35 W/m2
08:20 48.6 °F 44.9 °F 30.31 in East 4.0 mph 4.0 mph 87% 0.00 in 47 W/m2
08:26 48.7 °F 45.0 °F 30.31 in East 3.0 mph 8.0 mph 87% 0.00 in 58 W/m2
08:32 48.8 °F 45.1 °F 30.32 in SSE 3.0 mph 5.0 mph 87% 0.00 in 62 W/m2
08:38 49.0 °F 45.0 °F 30.32 in East 4.0 mph 5.0 mph 86% 0.00 in 58 W/m2
08:44 49.0 °F 45.3 °F 30.32 in East 4.0 mph 4.0 mph 87% 0.00 in 56 W/m2
08:50 49.1 °F 45.4 °F 30.32 in ESE 4.0 mph 7.0 mph 87% 0.00 in 54 W/m2
08:56 49.1 °F 45.1 °F 30.32 in NE 4.0 mph 7.0 mph 86% 0.00 in 51 W/m2
09:02 49.1 °F 45.1 °F 30.32 in NE 4.0 mph 4.0 mph 86% 0.00 in 67 W/m2
09:08 49.2 °F 45.2 °F 30.32 in ENE 4.0 mph 4.0 mph 86% 0.00 in 77 W/m2
09:14 49.3 °F 45.3 °F 30.32 in East 4.0 mph 7.0 mph 86% 0.00 in 90 W/m2
09:20 49.4 °F 45.4 °F 30.32 in ESE 4.0 mph 4.0 mph 86% 0.00 in 84 W/m2
09:26 49.5 °F 45.5 °F 30.33 in East 3.0 mph 5.0 mph 86% 0.00 in 72 W/m2
09:32 49.6 °F 45.6 °F 30.33 in ESE 4.0 mph 4.0 mph 86% 0.00 in 69 W/m2
09:38 49.6 °F 45.6 °F 30.33 in NE 3.0 mph 4.0 mph 86% 0.00 in 74 W/m2
09:44 49.7 °F 45.4 °F 30.33 in ENE 3.0 mph 8.0 mph 85% 0.00 in 84 W/m2
09:50 49.8 °F 45.5 °F 30.33 in NE 3.0 mph 5.0 mph 85% 0.00 in 86 W/m2
09:56 49.9 °F 45.6 °F 30.33 in ENE 4.0 mph 5.0 mph 85% 0.00 in 88 W/m2
10:02 49.9 °F 45.6 °F 30.33 in East 3.0 mph 4.0 mph 85% 0.00 in 98 W/m2
10:08 50.1 °F 45.8 °F 30.33 in NE 3.0 mph 5.0 mph 85% 0.00 in 107 W/m2
10:14 50.2 °F 45.6 °F 30.34 in East 4.0 mph 5.0 mph 84% 0.00 in 100 W/m2
10:20 50.3 °F 45.6 °F 30.34 in ENE 3.0 mph 3.0 mph 84% 0.00 in 93 W/m2
10:26 50.3 °F 45.6 °F 30.34 in SE 3.0 mph 5.0 mph 84% 0.00 in 93 W/m2
10:32 50.5 °F 45.8 °F 30.34 in ENE 3.0 mph 5.0 mph 84% 0.00 in 109 W/m2
10:38 50.7 °F 46.0 °F 30.34 in NE 2.0 mph 5.0 mph 84% 0.00 in 111 W/m2
10:44 50.8 °F 46.1 °F 30.34 in NE 2.0 mph 4.0 mph 84% 0.00 in 104 W/m2
10:56 51.0 °F 46.3 °F 30.34 in ENE 2.0 mph 3.0 mph 84% 0.00 in 113 W/m2
11:02 51.2 °F 46.5 °F 30.34 in ESE 2.0 mph 2.0 mph 84% 0.00 in 127 W/m2
11:08 51.4 °F 46.7 °F 30.35 in SE 2.0 mph 4.0 mph 84% 0.00 in 139 W/m2
11:14 51.5 °F 46.5 °F 30.35 in ENE 3.0 mph 3.0 mph 83% 0.00 in 155 W/m2
11:20 51.8 °F 46.8 °F 30.34 in ENE 3.0 mph 3.0 mph 83% 0.00 in 163 W/m2
11:26 52.0 °F 47.0 °F 30.35 in East 3.0 mph 5.0 mph 83% 0.00 in 158 W/m2
11:32 52.0 °F 47.0 °F 30.35 in East 3.0 mph 3.0 mph 83% 0.00 in 185 W/m2
11:38 52.3 °F 47.3 °F 30.34 in NE 3.0 mph 3.0 mph 83% 0.00 in 207 W/m2
11:44 52.3 °F 47.0 °F 30.35 in ENE 4.0 mph 10.0 mph 82% 0.00 in 234 W/m2
11:50 52.6 °F 47.3 °F 30.35 in NNE 4.0 mph 7.0 mph 82% 0.00 in 229 W/m2
11:56 52.9 °F 47.6 °F 30.35 in ENE 3.0 mph 7.0 mph 82% 0.00 in 214 W/m2
12:02 53.3 °F 47.9 °F 30.35 in ENE 2.0 mph 3.0 mph 82% 0.00 in 188 W/m2
12:08 53.2 °F 47.5 °F 30.35 in NE 3.0 mph 7.0 mph 81% 0.00 in 165 W/m2
12:14 53.2 °F 47.8 °F 30.35 in East 3.0 mph 3.0 mph 82% 0.00 in 178 W/m2
12:18 53.3 °F 47.3 °F 30.35 in East 2.0 mph 4.0 mph 80% 0.00 in 209 W/m2
12:24 53.4 °F 47.7 °F 30.34 in ESE 3.0 mph 3.0 mph 81% 0.00 in 250 W/m2
12:30 53.9 °F 48.2 °F 30.34 in SE 2.0 mph 3.0 mph 81% 0.00 in 269 W/m2
12:36 54.2 °F 48.2 °F 30.34 in North 2.0 mph 3.0 mph 80% 0.00 in 278 W/m2
12:42 54.3 °F 47.9 °F 30.34 in ENE 3.0 mph 3.0 mph 79% 0.00 in 288 W/m2
12:48 54.4 °F 48.4 °F 30.33 in ENE 4.0 mph 5.0 mph 80% 0.00 in 311 W/m2
12:54 54.7 °F 48.6 °F 30.33 in SE 3.0 mph 6.0 mph 80% 0.00 in 308 W/m2
13:00 54.8 °F 48.4 °F 30.33 in SE 3.0 mph 3.0 mph 79% 0.00 in 339 W/m2
13:06 55.2 °F 48.8 °F 30.33 in ENE 3.0 mph 4.0 mph 79% 0.00 in 376 W/m2
13:12 55.2 °F 48.5 °F 30.33 in ESE 3.0 mph 7.0 mph 78% 0.00 in 332 W/m2
13:18 55.5 °F 49.1 °F 30.33 in ENE 3.0 mph 9.0 mph 79% 0.00 in 371 W/m2
13:24 55.6 °F 48.5 °F 30.32 in East 4.0 mph 10.0 mph 77% 0.00 in 373 W/m2
13:30 55.8 °F 48.7 °F 30.32 in ENE 4.0 mph 4.0 mph 77% 0.00 in 299 W/m2
13:36 56.1 °F 49.0 °F 30.32 in NNE 3.0 mph 4.0 mph 77% 0.00 in 274 W/m2
13:42 56.0 °F 49.2 °F 30.32 in ENE 3.0 mph 3.0 mph 78% 0.00 in 281 W/m2
13:48 56.2 °F 49.1 °F 30.32 in NNE 3.0 mph 9.0 mph 77% 0.00 in 316 W/m2
13:54 56.6 °F 49.1 °F 30.32 in East 3.0 mph 6.0 mph 76% 0.00 in 302 W/m2
14:00 56.5 °F 48.7 °F 30.32 in East 3.0 mph 6.0 mph 75% 0.00 in 269 W/m2
14:06 56.3 °F 48.8 °F 30.32 in NE 5.0 mph 6.0 mph 76% 0.00 in 267 W/m2
14:12 56.2 °F 48.4 °F 30.32 in ESE 5.0 mph 5.0 mph 75% 0.00 in 243 W/m2
14:18 56.3 °F 48.8 °F 30.32 in East 4.0 mph 7.0 mph 76% 0.00 in 206 W/m2
14:24 56.3 °F 48.8 °F 30.31 in ENE 4.0 mph 5.0 mph 76% 0.00 in 186 W/m2
14:30 56.5 °F 48.7 °F 30.31 in East 4.0 mph 4.0 mph 75% 0.00 in 171 W/m2
14:36 56.5 °F 49.0 °F 30.31 in East 3.0 mph 4.0 mph 76% 0.00 in 176 W/m2
14:42 56.9 °F 49.4 °F 30.30 in ENE 3.0 mph 5.0 mph 76% 0.00 in 197 W/m2
14:48 57.2 °F 49.3 °F 30.30 in ENE 3.0 mph 5.0 mph 75% 0.00 in 225 W/m2
14:54 57.5 °F 49.6 °F 30.30 in ENE 3.0 mph 4.0 mph 75% 0.00 in 220 W/m2
15:00 57.6 °F 49.4 °F 30.30 in NE 3.0 mph 3.0 mph 74% 0.00 in 218 W/m2
15:06 57.8 °F 49.6 °F 30.30 in East 3.0 mph 3.0 mph 74% 0.00 in 220 W/m2
15:12 57.8 °F 49.6 °F 30.30 in NNE 4.0 mph 4.0 mph 74% 0.00 in 213 W/m2
15:18 58.1 °F 50.2 °F 30.30 in ENE 3.0 mph 4.0 mph 75% 0.00 in 202 W/m2
15:24 58.5 °F 49.9 °F 30.30 in NE 2.0 mph 3.0 mph 73% 0.00 in 279 W/m2
15:30 59.4 °F 50.7 °F 30.30 in NE 2.0 mph 2.0 mph 73% 0.00 in 555 W/m2
15:36 60.1 °F 50.3 °F 30.30 in East 3.0 mph 5.0 mph 70% 0.00 in 346 W/m2
15:42 60.3 °F 50.5 °F 30.30 in SE 5.0 mph 5.0 mph 70% 0.00 in 570 W/m2
15:48 60.6 °F 50.4 °F 30.30 in SSE 5.0 mph 8.0 mph 69% 0.00 in 230 W/m2
15:54 59.8 °F 49.2 °F 30.30 in ENE 5.0 mph 5.0 mph 68% 0.00 in 258 W/m2
16:00 60.2 °F 50.4 °F 30.30 in East 3.0 mph 3.0 mph 70% 0.00 in 309 W/m2
16:06 60.4 °F 50.6 °F 30.30 in East 2.0 mph 3.0 mph 70% 0.00 in 229 W/m2
16:12 60.5 °F 50.3 °F 30.30 in ESE 2.0 mph 3.0 mph 69% 0.00 in 193 W/m2
16:18 60.4 °F 50.2 °F 30.30 in ENE 3.0 mph 5.0 mph 69% 0.00 in 167 W/m2
16:24 60.6 °F 49.6 °F 30.30 in SSE 3.0 mph 3.0 mph 67% 0.00 in 121 W/m2
16:30 60.5 °F 49.9 °F 30.29 in SE 3.0 mph 4.0 mph 68% 0.00 in 109 W/m2
16:36 60.7 °F 50.1 °F 30.29 in SE 4.0 mph 5.0 mph 68% 0.00 in 139 W/m2
16:42 60.9 °F 49.9 °F 30.29 in SE 4.0 mph 4.0 mph 67% 0.00 in 287 W/m2
16:48 61.1 °F 50.1 °F 30.29 in SSE 3.0 mph 8.0 mph 67% 0.00 in 262 W/m2
16:54 61.3 °F 50.2 °F 30.29 in East 3.0 mph 4.0 mph 67% 0.00 in 248 W/m2
17:00 61.0 °F 50.0 °F 30.29 in SSE 3.0 mph 5.0 mph 67% 0.00 in 230 W/m2
17:06 61.0 °F 50.0 °F 30.29 in SE 3.0 mph 5.0 mph 67% 0.00 in 209 W/m2
17:12 60.9 °F 50.3 °F 30.29 in SE 3.0 mph 3.0 mph 68% 0.00 in 33 W/m2
17:18 60.6 °F 50.0 °F 30.29 in East 2.0 mph 3.0 mph 68% 0.00 in 32 W/m2
17:24 60.2 °F 50.0 °F 30.29 in East 1.0 mph 2.0 mph 69% 0.00 in 28 W/m2
17:30 60.2 °F 50.4 °F 30.28 in ENE 1.0 mph 1.0 mph 70% 0.00 in 26 W/m2
17:36 60.1 °F 50.7 °F 30.28 in ENE 1.0 mph 1.0 mph 71% 0.00 in 25 W/m2
17:42 59.9 °F 50.5 °F 30.28 in Calm   1.0 mph 71% 0.00 in 21 W/m2
17:48 59.7 °F 50.7 °F 30.29 in ENE 1.0 mph 1.0 mph 72% 0.00 in 19 W/m2
17:54 59.5 °F 50.8 °F 30.29 in Calm   2.0 mph 73% 0.00 in 18 W/m2
18:00 59.0 °F 51.4 °F 30.29 in Calm     76% 0.00 in 14 W/m2
18:06 58.1 °F 51.3 °F 30.29 in Calm     78% 0.00 in 11 W/m2
18:12 57.2 °F 51.1 °F 30.29 in Calm     80% 0.00 in 9 W/m2
18:18 56.6 °F 50.8 °F 30.29 in Calm     81% 0.00 in 7 W/m2
18:24 56.1 °F 51.0 °F 30.29 in Calm     83% 0.00 in 5 W/m2
18:30 55.5 °F 50.7 °F 30.29 in Calm     84% 0.00 in 0 W/m2
18:36 55.0 °F 50.6 °F 30.29 in Calm     85% 0.00 in 0 W/m2
18:42 54.6 °F 50.5 °F 30.29 in Calm   2.0 mph 86% 0.00 in 0 W/m2
18:48 54.2 °F 50.4 °F 30.29 in Calm   2.0 mph 87% 0.00 in 0 W/m2
18:54 53.9 °F 50.1 °F 30.29 in Calm     87% 0.00 in 0 W/m2
19:00 53.7 °F 50.2 °F 30.30 in Calm     88% 0.00 in 0 W/m2
19:06 53.7 °F 50.2 °F 30.30 in Calm   2.0 mph 88% 0.00 in 0 W/m2
19:12 53.6 °F 50.1 °F 30.30 in Calm   1.0 mph 88% 0.00 in 0 W/m2
19:18 53.7 °F 49.9 °F 30.30 in Calm   3.0 mph 87% 0.00 in 0 W/m2
19:24 54.0 °F 49.6 °F 30.30 in ESE 1.0 mph 3.0 mph 85% 0.00 in 0 W/m2
19:30 54.3 °F 49.2 °F 30.30 in ESE 1.0 mph 1.0 mph 83% 0.00 in 0 W/m2
19:36 54.6 °F 48.9 °F 30.30 in Calm   3.0 mph 81% 0.00 in 0 W/m2
19:42 54.7 °F 48.6 °F 30.30 in ESE 1.0 mph 3.0 mph 80% 0.00 in 0 W/m2
19:48 54.8 °F 48.4 °F 30.30 in Calm   3.0 mph 79% 0.00 in 0 W/m2
20:00 54.9 °F 48.2 °F 30.31 in Calm   2.0 mph 78% 0.00 in 0 W/m2
20:06 54.8 °F 48.1 °F 30.31 in Calm   2.0 mph 78% 0.00 in 0 W/m2
20:12 54.6 °F 47.9 °F 30.31 in Calm     78% 0.00 in 0 W/m2
20:18 54.4 °F 47.7 °F 30.31 in East 1.0 mph 1.0 mph 78% 0.00 in 0 W/m2
20:24 54.3 °F 47.9 °F 30.31 in Calm   1.0 mph 79% 0.00 in 0 W/m2
20:30 54.2 °F 47.8 °F 30.31 in Calm     79% 0.00 in 0 W/m2
20:36 54.1 °F 47.7 °F 30.31 in Calm     79% 0.00 in 0 W/m2
20:42 53.8 °F 47.8 °F 30.31 in Calm     80% 0.00 in 0 W/m2
20:48 53.3 °F 47.6 °F 30.31 in ENE 1.0 mph 2.0 mph 81% 0.00 in 0 W/m2
20:54 53.1 °F 47.7 °F 30.31 in ENE 1.0 mph 1.0 mph 82% 0.00 in 0 W/m2
21:00 52.9 °F 47.2 °F 30.31 in ENE 1.0 mph 1.0 mph 81% 0.00 in 0 W/m2
21:06 52.8 °F 47.1 °F 30.31 in Calm   1.0 mph 81% 0.00 in 0 W/m2
21:12 52.7 °F 47.4 °F 30.31 in Calm     82% 0.00 in 0 W/m2
21:18 52.5 °F 47.2 °F 30.31 in Calm     82% 0.00 in 0 W/m2
21:24 52.4 °F 47.1 °F 30.32 in Calm     82% 0.00 in 0 W/m2
21:30 52.2 °F 46.9 °F 30.32 in Calm   2.0 mph 82% 0.00 in 0 W/m2
21:36 52.0 °F 47.0 °F 30.31 in Calm   2.0 mph 83% 0.00 in 0 W/m2
21:42 51.7 °F 47.0 °F 30.31 in ENE 1.0 mph 1.0 mph 84% 0.00 in 0 W/m2
21:48 51.6 °F 46.9 °F 30.31 in ENE 1.0 mph 1.0 mph 84% 0.00 in 0 W/m2
21:54 51.6 °F 47.2 °F 30.31 in ENE 1.0 mph 3.0 mph 85% 0.00 in 0 W/m2
22:00 51.5 °F 47.1 °F 30.31 in ENE 1.0 mph 2.0 mph 85% 0.00 in 0 W/m2
22:06 51.3 °F 46.9 °F 30.31 in Calm   2.0 mph 85% 0.00 in 0 W/m2
22:12 51.0 °F 47.0 °F 30.31 in Calm     86% 0.00 in 0 W/m2
22:18 50.7 °F 46.7 °F 30.31 in Calm     86% 0.00 in 0 W/m2
22:24 50.5 °F 46.5 °F 30.31 in Calm     86% 0.00 in 0 W/m2
22:30 50.2 °F 46.5 °F 30.31 in Calm     87% 0.00 in 0 W/m2
22:36 49.9 °F 46.2 °F 30.31 in Calm     87% 0.00 in 0 W/m2
22:42 49.7 °F 46.3 °F 30.31 in Calm     88% 0.00 in 0 W/m2
22:48 49.7 °F 46.6 °F 30.31 in Calm     89% 0.00 in 0 W/m2
22:54 49.5 °F 46.4 °F 30.31 in Calm     89% 0.00 in 0 W/m2
23:00 49.4 °F 46.3 °F 30.31 in Calm     89% 0.00 in 0 W/m2
23:06 49.2 °F 46.1 °F 30.31 in Calm     89% 0.00 in 0 W/m2
23:14 49.3 °F 46.2 °F 30.31 in Calm   2.0 mph 89% 0.00 in 0 W/m2
23:20 49.6 °F 46.5 °F 30.31 in East 1.0 mph 1.0 mph 89% 0.00 in 0 W/m2
23:26 49.7 °F 46.6 °F 30.32 in East 1.0 mph 1.0 mph 89% 0.00 in 0 W/m2
23:32 49.7 °F 46.3 °F 30.32 in Calm   2.0 mph 88% 0.00 in 0 W/m2
23:38 49.6 °F 46.5 °F 30.32 in ENE 1.0 mph 5.0 mph 89% 0.00 in 0 W/m2
23:44 49.9 °F 46.5 °F 30.32 in ENE 1.0 mph 2.0 mph 88% 0.00 in 0 W/m2
23:50 49.9 °F 46.5 °F 30.32 in ENE 1.0 mph 1.0 mph 88% 0.00 in 0 W/m2
23:56 49.9 °F 46.2 °F 30.32 in ENE 1.0 mph 3.0 mph 87% 0.00 in 0 W/m2
Country Meadow, Clay, NY, USA
Compliments of Weather Underground - 2 mb